sensor_id;sensor_type;location;lat;lon;timestamp;P1;durP1;ratioP1;P2;durP2;ratioP2
3967;SDS011;9221;42.646;23.380;2024-02-26T00:01:27;16.93;;;5.80;;
3967;SDS011;9221;42.646;23.380;2024-02-26T00:03:53;18.20;;;6.43;;
3967;SDS011;9221;42.646;23.380;2024-02-26T00:06:20;17.40;;;6.30;;
3967;SDS011;9221;42.646;23.380;2024-02-26T00:08:46;14.57;;;5.40;;
3967;SDS011;9221;42.646;23.380;2024-02-26T00:11:11;14.63;;;5.00;;
3967;SDS011;9221;42.646;23.380;2024-02-26T00:13:37;17.47;;;5.73;;
3967;SDS011;9221;42.646;23.380;2024-02-26T00:16:03;16.17;;;5.93;;
3967;SDS011;9221;42.646;23.380;2024-02-26T00:18:29;19.17;;;5.80;;
3967;SDS011;9221;42.646;23.380;2024-02-26T00:20:56;18.80;;;6.00;;
3967;SDS011;9221;42.646;23.380;2024-02-26T00:23:22;15.10;;;5.60;;
3967;SDS011;9221;42.646;23.380;2024-02-26T00:25:49;14.80;;;5.90;;
3967;SDS011;9221;42.646;23.380;2024-02-26T00:28:14;17.47;;;6.73;;
3967;SDS011;9221;42.646;23.380;2024-02-26T00:30:40;17.70;;;7.00;;
3967;SDS011;9221;42.646;23.380;2024-02-26T00:33:05;14.87;;;5.97;;
3967;SDS011;9221;42.646;23.380;2024-02-26T00:35:31;18.27;;;7.27;;
3967;SDS011;9221;42.646;23.380;2024-02-26T00:37:56;24.77;;;6.50;;
3967;SDS011;9221;42.646;23.380;2024-02-26T00:40:23;15.60;;;5.60;;
3967;SDS011;9221;42.646;23.380;2024-02-26T00:42:49;13.80;;;5.73;;
3967;SDS011;9221;42.646;23.380;2024-02-26T00:45:15;20.63;;;7.70;;
3967;SDS011;9221;42.646;23.380;2024-02-26T00:47:41;19.83;;;6.80;;
3967;SDS011;9221;42.646;23.380;2024-02-26T00:50:07;17.17;;;7.07;;
3967;SDS011;9221;42.646;23.380;2024-02-26T00:52:33;16.30;;;7.00;;
3967;SDS011;9221;42.646;23.380;2024-02-26T00:54:59;17.60;;;6.30;;
3967;SDS011;9221;42.646;23.380;2024-02-26T00:57:25;20.50;;;6.80;;
3967;SDS011;9221;42.646;23.380;2024-02-26T00:59:51;21.27;;;7.53;;
3967;SDS011;9221;42.646;23.380;2024-02-26T01:02:16;23.93;;;8.10;;
3967;SDS011;9221;42.646;23.380;2024-02-26T01:04:41;23.73;;;7.10;;
3967;SDS011;9221;42.646;23.380;2024-02-26T01:07:07;19.10;;;7.80;;
3967;SDS011;9221;42.646;23.380;2024-02-26T01:09:32;15.43;;;6.60;;
3967;SDS011;9221;42.646;23.380;2024-02-26T01:11:58;24.10;;;8.30;;
3967;SDS011;9221;42.646;23.380;2024-02-26T01:14:23;14.50;;;6.50;;
3967;SDS011;9221;42.646;23.380;2024-02-26T01:16:49;17.37;;;6.80;;
3967;SDS011;9221;42.646;23.380;2024-02-26T01:19:15;22.17;;;7.13;;
3967;SDS011;9221;42.646;23.380;2024-02-26T01:21:41;22.53;;;6.93;;
3967;SDS011;9221;42.646;23.380;2024-02-26T01:24:06;18.00;;;6.73;;
3967;SDS011;9221;42.646;23.380;2024-02-26T01:26:32;19.90;;;6.90;;
3967;SDS011;9221;42.646;23.380;2024-02-26T01:28:57;23.23;;;7.10;;
3967;SDS011;9221;42.646;23.380;2024-02-26T01:31:23;18.63;;;6.73;;
3967;SDS011;9221;42.646;23.380;2024-02-26T01:33:49;21.07;;;6.60;;
3967;SDS011;9221;42.646;23.380;2024-02-26T01:36:14;20.23;;;7.33;;
3967;SDS011;9221;42.646;23.380;2024-02-26T01:38:40;14.40;;;5.70;;
3967;SDS011;9221;42.646;23.380;2024-02-26T01:41:05;17.20;;;6.30;;
3967;SDS011;9221;42.646;23.380;2024-02-26T01:43:31;21.60;;;6.93;;
3967;SDS011;9221;42.646;23.380;2024-02-26T01:45:57;15.00;;;6.30;;
3967;SDS011;9221;42.646;23.380;2024-02-26T01:48:23;17.77;;;6.97;;
3967;SDS011;9221;42.646;23.380;2024-02-26T01:50:49;18.23;;;6.73;;
3967;SDS011;9221;42.646;23.380;2024-02-26T01:53:14;19.17;;;6.70;;
3967;SDS011;9221;42.646;23.380;2024-02-26T01:55:41;18.37;;;6.83;;
3967;SDS011;9221;42.646;23.380;2024-02-26T01:58:07;19.70;;;7.20;;
3967;SDS011;9221;42.646;23.380;2024-02-26T02:00:33;19.83;;;6.50;;
3967;SDS011;9221;42.646;23.380;2024-02-26T02:03:00;17.60;;;6.70;;
3967;SDS011;9221;42.646;23.380;2024-02-26T02:05:26;22.13;;;6.70;;
3967;SDS011;9221;42.646;23.380;2024-02-26T02:07:53;17.87;;;7.17;;
3967;SDS011;9221;42.646;23.380;2024-02-26T02:10:19;20.67;;;6.63;;
3967;SDS011;9221;42.646;23.380;2024-02-26T02:12:48;23.47;;;7.30;;
3967;SDS011;9221;42.646;23.380;2024-02-26T02:15:14;18.17;;;6.80;;
3967;SDS011;9221;42.646;23.380;2024-02-26T02:17:39;17.70;;;7.50;;
3967;SDS011;9221;42.646;23.380;2024-02-26T02:20:09;15.43;;;6.43;;
3967;SDS011;9221;42.646;23.380;2024-02-26T02:22:40;23.80;;;7.90;;
3967;SDS011;9221;42.646;23.380;2024-02-26T02:25:05;20.13;;;8.10;;
3967;SDS011;9221;42.646;23.380;2024-02-26T02:27:31;18.20;;;7.10;;
3967;SDS011;9221;42.646;23.380;2024-02-26T02:29:57;26.27;;;8.37;;
3967;SDS011;9221;42.646;23.380;2024-02-26T02:32:23;24.90;;;7.80;;
3967;SDS011;9221;42.646;23.380;2024-02-26T02:34:50;16.90;;;7.50;;
3967;SDS011;9221;42.646;23.380;2024-02-26T02:37:16;18.63;;;7.30;;
3967;SDS011;9221;42.646;23.380;2024-02-26T02:39:41;26.80;;;8.10;;
3967;SDS011;9221;42.646;23.380;2024-02-26T02:42:08;19.30;;;6.90;;
3967;SDS011;9221;42.646;23.380;2024-02-26T02:44:34;23.73;;;8.00;;
3967;SDS011;9221;42.646;23.380;2024-02-26T02:46:59;19.70;;;7.50;;
3967;SDS011;9221;42.646;23.380;2024-02-26T02:49:25;20.10;;;7.30;;
3967;SDS011;9221;42.646;23.380;2024-02-26T02:51:50;16.77;;;7.03;;
3967;SDS011;9221;42.646;23.380;2024-02-26T02:54:16;20.37;;;7.60;;
3967;SDS011;9221;42.646;23.380;2024-02-26T02:56:41;20.53;;;7.73;;
3967;SDS011;9221;42.646;23.380;2024-02-26T02:59:06;15.20;;;7.30;;
3967;SDS011;9221;42.646;23.380;2024-02-26T03:01:32;22.37;;;7.53;;
3967;SDS011;9221;42.646;23.380;2024-02-26T03:03:57;17.90;;;7.73;;
3967;SDS011;9221;42.646;23.380;2024-02-26T03:06:23;23.73;;;8.27;;
3967;SDS011;9221;42.646;23.380;2024-02-26T03:08:51;18.63;;;7.40;;
3967;SDS011;9221;42.646;23.380;2024-02-26T03:11:17;23.33;;;7.30;;
3967;SDS011;9221;42.646;23.380;2024-02-26T03:13:42;18.57;;;7.70;;
3967;SDS011;9221;42.646;23.380;2024-02-26T03:16:08;19.50;;;7.50;;
3967;SDS011;9221;42.646;23.380;2024-02-26T03:18:34;20.90;;;7.53;;
3967;SDS011;9221;42.646;23.380;2024-02-26T03:20:59;20.47;;;7.70;;
3967;SDS011;9221;42.646;23.380;2024-02-26T03:23:25;19.43;;;7.20;;
3967;SDS011;9221;42.646;23.380;2024-02-26T03:25:50;16.07;;;6.90;;
3967;SDS011;9221;42.646;23.380;2024-02-26T03:28:16;16.97;;;6.27;;
3967;SDS011;9221;42.646;23.380;2024-02-26T03:30:41;19.60;;;8.03;;
3967;SDS011;9221;42.646;23.380;2024-02-26T03:33:07;25.40;;;8.43;;
3967;SDS011;9221;42.646;23.380;2024-02-26T03:35:32;25.33;;;7.93;;
3967;SDS011;9221;42.646;23.380;2024-02-26T03:37:58;17.47;;;7.23;;
3967;SDS011;9221;42.646;23.380;2024-02-26T03:40:23;18.53;;;7.03;;
3967;SDS011;9221;42.646;23.380;2024-02-26T03:42:49;16.93;;;6.30;;
3967;SDS011;9221;42.646;23.380;2024-02-26T03:45:15;19.03;;;7.20;;
3967;SDS011;9221;42.646;23.380;2024-02-26T03:47:41;17.50;;;7.47;;
3967;SDS011;9221;42.646;23.380;2024-02-26T03:50:06;18.00;;;6.80;;
3967;SDS011;9221;42.646;23.380;2024-02-26T03:52:33;17.20;;;6.57;;
3967;SDS011;9221;42.646;23.380;2024-02-26T03:54:59;23.20;;;7.83;;
3967;SDS011;9221;42.646;23.380;2024-02-26T03:57:25;14.57;;;6.20;;
3967;SDS011;9221;42.646;23.380;2024-02-26T03:59:50;20.63;;;7.13;;
3967;SDS011;9221;42.646;23.380;2024-02-26T04:02:16;16.17;;;6.43;;
3967;SDS011;9221;42.646;23.380;2024-02-26T04:04:41;17.77;;;6.27;;
3967;SDS011;9221;42.646;23.380;2024-02-26T04:07:07;21.00;;;7.83;;
3967;SDS011;9221;42.646;23.380;2024-02-26T04:09:33;17.67;;;6.67;;
3967;SDS011;9221;42.646;23.380;2024-02-26T04:11:58;18.90;;;7.00;;
3967;SDS011;9221;42.646;23.380;2024-02-26T04:14:24;21.27;;;7.40;;
3967;SDS011;9221;42.646;23.380;2024-02-26T04:16:50;16.47;;;6.57;;
3967;SDS011;9221;42.646;23.380;2024-02-26T04:19:17;15.73;;;6.47;;
3967;SDS011;9221;42.646;23.380;2024-02-26T04:21:43;15.27;;;6.33;;
3967;SDS011;9221;42.646;23.380;2024-02-26T04:24:09;16.40;;;6.50;;
3967;SDS011;9221;42.646;23.380;2024-02-26T04:26:34;15.77;;;6.30;;
3967;SDS011;9221;42.646;23.380;2024-02-26T04:29:00;17.87;;;6.33;;
3967;SDS011;9221;42.646;23.380;2024-02-26T04:31:25;12.50;;;6.03;;
3967;SDS011;9221;42.646;23.380;2024-02-26T04:33:51;15.50;;;7.00;;
3967;SDS011;9221;42.646;23.380;2024-02-26T04:36:17;22.03;;;6.93;;
3967;SDS011;9221;42.646;23.380;2024-02-26T04:38:43;22.40;;;6.33;;
3967;SDS011;9221;42.646;23.380;2024-02-26T04:41:09;15.43;;;6.10;;
3967;SDS011;9221;42.646;23.380;2024-02-26T04:43:34;15.70;;;6.23;;
3967;SDS011;9221;42.646;23.380;2024-02-26T04:46:06;15.27;;;6.37;;
3967;SDS011;9221;42.646;23.380;2024-02-26T04:48:35;16.60;;;6.90;;
3967;SDS011;9221;42.646;23.380;2024-02-26T04:51:03;18.30;;;7.10;;
3967;SDS011;9221;42.646;23.380;2024-02-26T04:53:29;18.73;;;7.20;;
3967;SDS011;9221;42.646;23.380;2024-02-26T04:55:55;24.67;;;8.03;;
3967;SDS011;9221;42.646;23.380;2024-02-26T04:58:20;22.43;;;7.80;;
3967;SDS011;9221;42.646;23.380;2024-02-26T05:00:46;24.27;;;8.73;;
3967;SDS011;9221;42.646;23.380;2024-02-26T05:03:11;26.23;;;9.00;;
3967;SDS011;9221;42.646;23.380;2024-02-26T05:05:42;36.07;;;11.17;;
3967;SDS011;9221;42.646;23.380;2024-02-26T05:08:08;28.27;;;8.70;;
3967;SDS011;9221;42.646;23.380;2024-02-26T05:10:34;25.03;;;9.77;;
3967;SDS011;9221;42.646;23.380;2024-02-26T05:13:04;25.47;;;9.83;;
3967;SDS011;9221;42.646;23.380;2024-02-26T05:15:29;34.77;;;10.20;;
3967;SDS011;9221;42.646;23.380;2024-02-26T05:17:55;33.33;;;11.50;;
3967;SDS011;9221;42.646;23.380;2024-02-26T05:20:20;45.23;;;13.23;;
3967;SDS011;9221;42.646;23.380;2024-02-26T05:22:46;39.57;;;14.33;;
3967;SDS011;9221;42.646;23.380;2024-02-26T05:25:14;40.60;;;11.93;;
3967;SDS011;9221;42.646;23.380;2024-02-26T05:27:40;29.10;;;11.70;;
3967;SDS011;9221;42.646;23.380;2024-02-26T05:30:06;40.27;;;13.53;;
3967;SDS011;9221;42.646;23.380;2024-02-26T05:32:32;32.47;;;12.57;;
3967;SDS011;9221;42.646;23.380;2024-02-26T05:34:58;44.83;;;15.27;;
3967;SDS011;9221;42.646;23.380;2024-02-26T05:37:23;35.87;;;13.20;;
3967;SDS011;9221;42.646;23.380;2024-02-26T05:39:49;40.93;;;14.90;;
3967;SDS011;9221;42.646;23.380;2024-02-26T05:42:14;34.13;;;13.40;;
3967;SDS011;9221;42.646;23.380;2024-02-26T05:44:40;39.90;;;13.00;;
3967;SDS011;9221;42.646;23.380;2024-02-26T05:47:05;31.43;;;12.17;;
3967;SDS011;9221;42.646;23.380;2024-02-26T05:49:30;32.57;;;11.80;;
3967;SDS011;9221;42.646;23.380;2024-02-26T05:51:57;27.80;;;10.80;;
3967;SDS011;9221;42.646;23.380;2024-02-26T05:54:23;35.73;;;13.10;;
3967;SDS011;9221;42.646;23.380;2024-02-26T05:56:48;30.07;;;11.83;;
3967;SDS011;9221;42.646;23.380;2024-02-26T05:59:14;38.60;;;13.70;;
3967;SDS011;9221;42.646;23.380;2024-02-26T06:01:41;35.17;;;12.33;;
3967;SDS011;9221;42.646;23.380;2024-02-26T06:04:06;32.97;;;11.40;;
3967;SDS011;9221;42.646;23.380;2024-02-26T06:06:32;32.80;;;11.07;;
3967;SDS011;9221;42.646;23.380;2024-02-26T06:08:57;24.37;;;9.30;;
3967;SDS011;9221;42.646;23.380;2024-02-26T06:11:23;21.93;;;7.67;;
3967;SDS011;9221;42.646;23.380;2024-02-26T06:13:48;21.87;;;9.03;;
3967;SDS011;9221;42.646;23.380;2024-02-26T06:16:14;27.33;;;10.73;;
3967;SDS011;9221;42.646;23.380;2024-02-26T06:18:39;29.27;;;10.93;;
3967;SDS011;9221;42.646;23.380;2024-02-26T06:21:08;23.40;;;9.13;;
3967;SDS011;9221;42.646;23.380;2024-02-26T06:23:34;25.33;;;9.63;;
3967;SDS011;9221;42.646;23.380;2024-02-26T06:26:00;24.43;;;8.23;;
3967;SDS011;9221;42.646;23.380;2024-02-26T06:28:25;22.07;;;8.00;;
3967;SDS011;9221;42.646;23.380;2024-02-26T06:30:51;20.00;;;8.03;;
3967;SDS011;9221;42.646;23.380;2024-02-26T06:33:17;25.40;;;9.60;;
3967;SDS011;9221;42.646;23.380;2024-02-26T06:35:43;26.53;;;8.07;;
3967;SDS011;9221;42.646;23.380;2024-02-26T06:38:09;18.93;;;7.97;;
3967;SDS011;9221;42.646;23.380;2024-02-26T06:40:36;21.53;;;7.97;;
3967;SDS011;9221;42.646;23.380;2024-02-26T06:43:02;17.73;;;7.50;;
3967;SDS011;9221;42.646;23.380;2024-02-26T06:45:27;16.47;;;6.03;;
3967;SDS011;9221;42.646;23.380;2024-02-26T06:47:53;21.80;;;7.90;;
3967;SDS011;9221;42.646;23.380;2024-02-26T06:50:18;22.13;;;7.90;;
3967;SDS011;9221;42.646;23.380;2024-02-26T06:52:44;24.77;;;8.20;;
3967;SDS011;9221;42.646;23.380;2024-02-26T06:55:11;21.30;;;8.43;;
3967;SDS011;9221;42.646;23.380;2024-02-26T06:57:36;25.63;;;8.20;;
3967;SDS011;9221;42.646;23.380;2024-02-26T07:00:02;25.33;;;8.23;;
3967;SDS011;9221;42.646;23.380;2024-02-26T07:02:29;22.13;;;8.50;;
3967;SDS011;9221;42.646;23.380;2024-02-26T07:04:54;28.93;;;8.90;;
3967;SDS011;9221;42.646;23.380;2024-02-26T07:07:21;20.10;;;8.67;;
3967;SDS011;9221;42.646;23.380;2024-02-26T07:09:48;20.80;;;7.80;;
3967;SDS011;9221;42.646;23.380;2024-02-26T07:12:14;24.40;;;7.73;;
3967;SDS011;9221;42.646;23.380;2024-02-26T07:14:41;24.43;;;8.30;;
3967;SDS011;9221;42.646;23.380;2024-02-26T07:17:06;20.03;;;7.50;;
3967;SDS011;9221;42.646;23.380;2024-02-26T07:19:32;26.93;;;7.90;;
3967;SDS011;9221;42.646;23.380;2024-02-26T07:21:58;25.37;;;9.00;;
3967;SDS011;9221;42.646;23.380;2024-02-26T07:24:23;24.83;;;8.97;;
3967;SDS011;9221;42.646;23.380;2024-02-26T07:26:49;30.43;;;9.57;;
3967;SDS011;9221;42.646;23.380;2024-02-26T07:29:14;25.77;;;9.30;;
3967;SDS011;9221;42.646;23.380;2024-02-26T07:31:40;25.93;;;9.47;;
3967;SDS011;9221;42.646;23.380;2024-02-26T07:34:05;21.70;;;9.30;;
3967;SDS011;9221;42.646;23.380;2024-02-26T07:36:30;32.23;;;9.83;;
3967;SDS011;9221;42.646;23.380;2024-02-26T07:38:56;29.30;;;10.90;;
3967;SDS011;9221;42.646;23.380;2024-02-26T07:41:21;25.00;;;9.27;;
3967;SDS011;9221;42.646;23.380;2024-02-26T07:43:47;30.53;;;10.33;;
3967;SDS011;9221;42.646;23.380;2024-02-26T07:46:13;29.80;;;11.00;;
3967;SDS011;9221;42.646;23.380;2024-02-26T07:48:39;21.07;;;7.97;;
3967;SDS011;9221;42.646;23.380;2024-02-26T07:51:04;28.67;;;8.97;;
3967;SDS011;9221;42.646;23.380;2024-02-26T07:53:30;20.63;;;6.40;;
3967;SDS011;9221;42.646;23.380;2024-02-26T07:55:56;19.00;;;7.20;;
3967;SDS011;9221;42.646;23.380;2024-02-26T07:58:22;17.87;;;7.10;;
3967;SDS011;9221;42.646;23.380;2024-02-26T08:00:49;24.07;;;7.27;;
3967;SDS011;9221;42.646;23.380;2024-02-26T08:03:14;23.60;;;7.90;;
3967;SDS011;9221;42.646;23.380;2024-02-26T08:05:41;23.07;;;7.47;;
3967;SDS011;9221;42.646;23.380;2024-02-26T08:08:08;18.77;;;5.40;;
3967;SDS011;9221;42.646;23.380;2024-02-26T08:10:34;14.37;;;5.30;;
3967;SDS011;9221;42.646;23.380;2024-02-26T08:13:00;12.77;;;5.10;;
3967;SDS011;9221;42.646;23.380;2024-02-26T08:15:33;15.10;;;4.73;;
3967;SDS011;9221;42.646;23.380;2024-02-26T08:18:02;12.87;;;4.87;;
3967;SDS011;9221;42.646;23.380;2024-02-26T08:20:29;13.20;;;4.80;;
3967;SDS011;9221;42.646;23.380;2024-02-26T08:22:55;11.67;;;4.80;;
3967;SDS011;9221;42.646;23.380;2024-02-26T08:25:21;9.90;;;4.40;;
3967;SDS011;9221;42.646;23.380;2024-02-26T08:27:46;15.30;;;5.20;;
3967;SDS011;9221;42.646;23.380;2024-02-26T08:30:13;24.33;;;5.87;;
3967;SDS011;9221;42.646;23.380;2024-02-26T08:32:41;16.87;;;5.20;;
3967;SDS011;9221;42.646;23.380;2024-02-26T08:35:07;15.77;;;5.23;;
3967;SDS011;9221;42.646;23.380;2024-02-26T08:37:33;13.50;;;4.97;;
3967;SDS011;9221;42.646;23.380;2024-02-26T08:39:58;13.43;;;4.90;;
3967;SDS011;9221;42.646;23.380;2024-02-26T08:42:24;10.83;;;4.70;;
3967;SDS011;9221;42.646;23.380;2024-02-26T08:44:49;14.00;;;5.60;;
3967;SDS011;9221;42.646;23.380;2024-02-26T08:47:15;18.47;;;5.03;;
3967;SDS011;9221;42.646;23.380;2024-02-26T08:49:44;10.27;;;5.23;;
3967;SDS011;9221;42.646;23.380;2024-02-26T08:52:11;16.63;;;4.77;;
3967;SDS011;9221;42.646;23.380;2024-02-26T08:54:36;32.80;;;6.73;;
3967;SDS011;9221;42.646;23.380;2024-02-26T08:57:02;19.00;;;6.03;;
3967;SDS011;9221;42.646;23.380;2024-02-26T08:59:28;15.80;;;5.73;;
3967;SDS011;9221;42.646;23.380;2024-02-26T09:01:54;14.33;;;5.63;;
3967;SDS011;9221;42.646;23.380;2024-02-26T09:04:19;22.97;;;6.63;;
3967;SDS011;9221;42.646;23.380;2024-02-26T09:06:45;13.10;;;5.40;;
3967;SDS011;9221;42.646;23.380;2024-02-26T09:09:11;15.77;;;5.80;;
3967;SDS011;9221;42.646;23.380;2024-02-26T09:11:36;16.13;;;5.00;;
3967;SDS011;9221;42.646;23.380;2024-02-26T09:14:02;18.77;;;5.63;;
3967;SDS011;9221;42.646;23.380;2024-02-26T09:16:28;11.10;;;4.83;;
3967;SDS011;9221;42.646;23.380;2024-02-26T09:18:54;13.60;;;5.17;;
3967;SDS011;9221;42.646;23.380;2024-02-26T09:21:20;13.40;;;4.57;;
3967;SDS011;9221;42.646;23.380;2024-02-26T09:23:49;12.90;;;4.93;;
3967;SDS011;9221;42.646;23.380;2024-02-26T09:26:15;9.83;;;3.80;;
3967;SDS011;9221;42.646;23.380;2024-02-26T09:28:41;17.83;;;5.50;;
3967;SDS011;9221;42.646;23.380;2024-02-26T09:31:07;12.50;;;4.70;;
3967;SDS011;9221;42.646;23.380;2024-02-26T09:33:32;12.00;;;4.10;;
3967;SDS011;9221;42.646;23.380;2024-02-26T09:35:58;15.97;;;4.60;;
3967;SDS011;9221;42.646;23.380;2024-02-26T09:38:25;12.73;;;4.53;;
3967;SDS011;9221;42.646;23.380;2024-02-26T09:40:51;13.93;;;4.50;;
3967;SDS011;9221;42.646;23.380;2024-02-26T09:43:17;11.80;;;4.30;;
3967;SDS011;9221;42.646;23.380;2024-02-26T09:45:47;20.63;;;4.80;;
3967;SDS011;9221;42.646;23.380;2024-02-26T09:48:15;13.63;;;4.33;;
3967;SDS011;9221;42.646;23.380;2024-02-26T09:50:42;12.53;;;4.77;;
3967;SDS011;9221;42.646;23.380;2024-02-26T09:53:08;11.97;;;4.73;;
3967;SDS011;9221;42.646;23.380;2024-02-26T09:55:36;13.40;;;5.10;;
3967;SDS011;9221;42.646;23.380;2024-02-26T09:58:02;13.90;;;5.90;;
3967;SDS011;9221;42.646;23.380;2024-02-26T10:00:30;12.63;;;4.50;;
3967;SDS011;9221;42.646;23.380;2024-02-26T10:03:01;24.67;;;5.07;;
3967;SDS011;9221;42.646;23.380;2024-02-26T10:05:29;14.30;;;4.67;;
3967;SDS011;9221;42.646;23.380;2024-02-26T10:07:56;12.23;;;4.53;;
3967;SDS011;9221;42.646;23.380;2024-02-26T10:10:23;11.97;;;4.13;;
3967;SDS011;9221;42.646;23.380;2024-02-26T10:12:49;9.40;;;4.37;;
3967;SDS011;9221;42.646;23.380;2024-02-26T10:15:15;12.83;;;4.97;;
3967;SDS011;9221;42.646;23.380;2024-02-26T10:17:41;9.97;;;3.60;;
3967;SDS011;9221;42.646;23.380;2024-02-26T10:20:16;12.77;;;5.10;;
3967;SDS011;9221;42.646;23.380;2024-02-26T10:22:46;23.47;;;5.37;;
3967;SDS011;9221;42.646;23.380;2024-02-26T10:25:12;9.73;;;4.37;;
3967;SDS011;9221;42.646;23.380;2024-02-26T10:27:37;11.27;;;4.47;;
3967;SDS011;9221;42.646;23.380;2024-02-26T10:30:26;12.40;;;4.37;;
3967;SDS011;9221;42.646;23.380;2024-02-26T10:32:51;13.17;;;4.47;;
3967;SDS011;9221;42.646;23.380;2024-02-26T10:35:17;11.03;;;3.90;;
3967;SDS011;9221;42.646;23.380;2024-02-26T10:37:43;19.70;;;4.27;;
3967;SDS011;9221;42.646;23.380;2024-02-26T10:40:11;16.57;;;4.40;;
3967;SDS011;9221;42.646;23.380;2024-02-26T10:42:38;12.43;;;4.83;;
3967;SDS011;9221;42.646;23.380;2024-02-26T10:45:06;9.50;;;4.50;;
3967;SDS011;9221;42.646;23.380;2024-02-26T10:47:34;12.10;;;5.60;;
3967;SDS011;9221;42.646;23.380;2024-02-26T10:50:03;15.60;;;4.90;;
3967;SDS011;9221;42.646;23.380;2024-02-26T10:52:36;10.23;;;4.03;;
3967;SDS011;9221;42.646;23.380;2024-02-26T10:55:02;9.73;;;4.00;;
3967;SDS011;9221;42.646;23.380;2024-02-26T10:57:39;12.03;;;4.57;;
3967;SDS011;9221;42.646;23.380;2024-02-26T11:00:06;11.80;;;4.13;;
3967;SDS011;9221;42.646;23.380;2024-02-26T11:02:35;12.50;;;4.83;;
3967;SDS011;9221;42.646;23.380;2024-02-26T11:05:02;10.37;;;4.20;;
3967;SDS011;9221;42.646;23.380;2024-02-26T11:07:31;12.60;;;4.60;;
3967;SDS011;9221;42.646;23.380;2024-02-26T11:10:01;15.40;;;5.67;;
3967;SDS011;9221;42.646;23.380;2024-02-26T11:12:33;9.90;;;4.40;;
3967;SDS011;9221;42.646;23.380;2024-02-26T11:15:03;17.10;;;4.57;;
3967;SDS011;9221;42.646;23.380;2024-02-26T11:17:29;9.53;;;3.93;;
3967;SDS011;9221;42.646;23.380;2024-02-26T11:19:59;15.57;;;4.43;;
3967;SDS011;9221;42.646;23.380;2024-02-26T11:22:27;13.20;;;4.00;;
3967;SDS011;9221;42.646;23.380;2024-02-26T11:24:54;11.47;;;4.43;;
3967;SDS011;9221;42.646;23.380;2024-02-26T11:27:23;11.90;;;4.43;;
3967;SDS011;9221;42.646;23.380;2024-02-26T11:29:55;12.73;;;4.70;;
3967;SDS011;9221;42.646;23.380;2024-02-26T11:32:24;8.63;;;4.00;;
3967;SDS011;9221;42.646;23.380;2024-02-26T11:34:51;11.67;;;4.30;;
3967;SDS011;9221;42.646;23.380;2024-02-26T11:37:19;13.90;;;4.70;;
3967;SDS011;9221;42.646;23.380;2024-02-26T11:39:45;13.90;;;4.70;;
3967;SDS011;9221;42.646;23.380;2024-02-26T11:42:13;13.67;;;4.63;;
3967;SDS011;9221;42.646;23.380;2024-02-26T11:44:40;8.37;;;3.87;;
3967;SDS011;9221;42.646;23.380;2024-02-26T11:47:09;10.43;;;3.70;;
3967;SDS011;9221;42.646;23.380;2024-02-26T11:49:36;10.50;;;3.03;;
3967;SDS011;9221;42.646;23.380;2024-02-26T11:52:04;14.60;;;3.40;;
3967;SDS011;9221;42.646;23.380;2024-02-26T11:57:20;10.60;;;4.30;;
3967;SDS011;9221;42.646;23.380;2024-02-26T12:02:40;9.93;;;4.00;;
3967;SDS011;9221;42.646;23.380;2024-02-26T12:07:39;10.13;;;3.97;;
3967;SDS011;9221;42.646;23.380;2024-02-26T12:10:15;11.00;;;3.60;;
3967;SDS011;9221;42.646;23.380;2024-02-26T12:12:45;12.33;;;3.97;;
3967;SDS011;9221;42.646;23.380;2024-02-26T12:15:11;14.73;;;3.90;;
3967;SDS011;9221;42.646;23.380;2024-02-26T12:17:37;15.50;;;4.07;;
3967;SDS011;9221;42.646;23.380;2024-02-26T12:20:09;12.03;;;4.00;;
3967;SDS011;9221;42.646;23.380;2024-02-26T12:22:36;7.77;;;3.53;;
3967;SDS011;9221;42.646;23.380;2024-02-26T12:25:04;11.60;;;4.37;;
3967;SDS011;9221;42.646;23.380;2024-02-26T12:27:30;7.37;;;3.00;;
3967;SDS011;9221;42.646;23.380;2024-02-26T12:29:56;9.80;;;3.47;;
3967;SDS011;9221;42.646;23.380;2024-02-26T12:32:22;13.53;;;3.47;;
3967;SDS011;9221;42.646;23.380;2024-02-26T12:34:48;12.50;;;4.13;;
3967;SDS011;9221;42.646;23.380;2024-02-26T12:37:15;11.67;;;4.37;;
3967;SDS011;9221;42.646;23.380;2024-02-26T12:39:41;10.40;;;3.53;;
3967;SDS011;9221;42.646;23.380;2024-02-26T12:42:07;13.40;;;3.53;;
3967;SDS011;9221;42.646;23.380;2024-02-26T12:44:34;10.03;;;3.73;;
3967;SDS011;9221;42.646;23.380;2024-02-26T12:47:03;12.53;;;3.63;;
3967;SDS011;9221;42.646;23.380;2024-02-26T12:49:29;9.60;;;3.97;;
3967;SDS011;9221;42.646;23.380;2024-02-26T12:51:55;9.27;;;3.53;;
3967;SDS011;9221;42.646;23.380;2024-02-26T12:54:27;8.20;;;2.80;;
3967;SDS011;9221;42.646;23.380;2024-02-26T12:56:57;10.60;;;3.30;;
3967;SDS011;9221;42.646;23.380;2024-02-26T12:59:24;9.90;;;3.57;;
3967;SDS011;9221;42.646;23.380;2024-02-26T13:01:50;9.20;;;3.70;;
3967;SDS011;9221;42.646;23.380;2024-02-26T13:04:15;8.67;;;3.50;;
3967;SDS011;9221;42.646;23.380;2024-02-26T13:06:41;11.77;;;3.30;;
3967;SDS011;9221;42.646;23.380;2024-02-26T13:09:07;8.10;;;3.70;;
3967;SDS011;9221;42.646;23.380;2024-02-26T13:11:34;13.00;;;3.73;;
3967;SDS011;9221;42.646;23.380;2024-02-26T13:13:59;15.90;;;6.57;;
3967;SDS011;9221;42.646;23.380;2024-02-26T13:16:25;16.67;;;3.80;;
3967;SDS011;9221;42.646;23.380;2024-02-26T13:18:51;9.00;;;3.30;;
3967;SDS011;9221;42.646;23.380;2024-02-26T13:21:18;15.30;;;3.67;;
3967;SDS011;9221;42.646;23.380;2024-02-26T13:23:47;6.70;;;2.93;;
3967;SDS011;9221;42.646;23.380;2024-02-26T13:26:14;12.20;;;3.30;;
3967;SDS011;9221;42.646;23.380;2024-02-26T13:28:39;8.47;;;3.40;;
3967;SDS011;9221;42.646;23.380;2024-02-26T13:31:05;7.90;;;2.63;;
3967;SDS011;9221;42.646;23.380;2024-02-26T13:33:32;10.27;;;3.60;;
3967;SDS011;9221;42.646;23.380;2024-02-26T13:35:59;10.47;;;3.50;;
3967;SDS011;9221;42.646;23.380;2024-02-26T13:38:25;8.70;;;3.30;;
3967;SDS011;9221;42.646;23.380;2024-02-26T13:40:52;9.27;;;3.40;;
3967;SDS011;9221;42.646;23.380;2024-02-26T13:43:18;10.73;;;3.40;;
3967;SDS011;9221;42.646;23.380;2024-02-26T13:45:44;8.30;;;3.50;;
3967;SDS011;9221;42.646;23.380;2024-02-26T13:48:11;14.60;;;3.20;;
3967;SDS011;9221;42.646;23.380;2024-02-26T13:50:40;10.70;;;3.00;;
3967;SDS011;9221;42.646;23.380;2024-02-26T13:53:08;9.63;;;3.63;;
3967;SDS011;9221;42.646;23.380;2024-02-26T13:55:34;7.77;;;3.40;;
3967;SDS011;9221;42.646;23.380;2024-02-26T13:58:00;7.80;;;2.97;;
3967;SDS011;9221;42.646;23.380;2024-02-26T14:00:28;9.03;;;3.37;;
3967;SDS011;9221;42.646;23.380;2024-02-26T14:02:57;8.97;;;2.83;;
3967;SDS011;9221;42.646;23.380;2024-02-26T14:05:23;9.40;;;3.47;;
3967;SDS011;9221;42.646;23.380;2024-02-26T14:07:48;7.03;;;2.77;;
3967;SDS011;9221;42.646;23.380;2024-02-26T14:10:14;9.83;;;3.10;;
3967;SDS011;9221;42.646;23.380;2024-02-26T14:12:41;6.93;;;2.50;;
3967;SDS011;9221;42.646;23.380;2024-02-26T14:15:06;10.60;;;3.97;;
3967;SDS011;9221;42.646;23.380;2024-02-26T14:17:33;9.87;;;3.40;;
3967;SDS011;9221;42.646;23.380;2024-02-26T14:19:58;24.97;;;3.80;;
3967;SDS011;9221;42.646;23.380;2024-02-26T14:22:24;11.07;;;3.67;;
3967;SDS011;9221;42.646;23.380;2024-02-26T14:24:51;7.57;;;2.90;;
3967;SDS011;9221;42.646;23.380;2024-02-26T14:27:17;13.33;;;3.80;;
3967;SDS011;9221;42.646;23.380;2024-02-26T14:29:45;12.40;;;3.60;;
3967;SDS011;9221;42.646;23.380;2024-02-26T14:32:11;16.73;;;3.53;;
3967;SDS011;9221;42.646;23.380;2024-02-26T14:34:36;7.37;;;2.43;;
3967;SDS011;9221;42.646;23.380;2024-02-26T14:37:02;15.90;;;3.37;;
3967;SDS011;9221;42.646;23.380;2024-02-26T14:39:29;7.90;;;2.80;;
3967;SDS011;9221;42.646;23.380;2024-02-26T14:41:56;9.87;;;2.90;;
3967;SDS011;9221;42.646;23.380;2024-02-26T14:44:22;7.60;;;2.80;;
3967;SDS011;9221;42.646;23.380;2024-02-26T14:46:48;8.50;;;2.87;;
3967;SDS011;9221;42.646;23.380;2024-02-26T14:49:13;11.17;;;3.00;;
3967;SDS011;9221;42.646;23.380;2024-02-26T14:51:39;12.90;;;3.00;;